Time;durP1;ratioP1;P1;durP2;ratioP2;P2;SDS_P1;SDS_P2;PMS_P1;PMS_P2;Temp;Humidity;BMP_temperature;BMP_pressure;BME280_temperature;BME280_humidity;BME280_pressure;Samples;Min_cycle;Max_cycle;Signal;HPM_P1;HPM_P2
2021/09/26 00:01:02;;;;;;;;;;;;;;;;;;;;;
2021/09/26 00:17:01;;;;;;;;;;;;;;;;;;;;;
2021/09/26 00:19:49;;;;;;;;;;;;;;;;;;;;;
2021/09/26 00:31:55;;;;;;;;;3369.25;3369.25;;;;;;;;6108340;23;8837;-83
2021/09/26 00:34:30;;;;;;;;;3367.50;3367.50;;;;;;;;6170399;23;8806;-83
2021/09/26 00:37:00;;;;;;;;;3367.50;3367.50;;;;;;;;6281195;22;8673;-83
2021/09/26 00:39:55;;;;;;;;;;;;;;;;;;;;;
2021/09/26 00:42:24;;;;;;;;;3367.50;3367.50;;;;;;;;6320075;22;36142;-82
2021/09/26 00:44:49;;;;;;;;;3361.25;3361.25;;;;;;;;6320864;22;11668;-83
2021/09/26 00:47:18;;;;;;;;;3352.75;3352.75;;;;;;;;6321358;22;8767;-83
2021/09/26 00:50:01;;;;;;;;;3368.00;3368.00;;;;;;;;6318546;22;9724;-83
2021/09/26 00:52:29;;;;;;;;;3367.50;3367.50;;;;;;;;6321014;22;11411;-83
2021/09/26 00:54:54;;;;;;;;;3347.50;3347.50;;;;;;;;6318342;22;8776;-82
2021/09/26 00:57:20;;;;;;;;;3349.25;3349.25;;;;;;;;6321274;22;8883;-82
2021/09/26 00:59:58;;;;;;;;;3344.75;3344.75;;;;;;;;6321384;22;8740;-83
2021/09/26 01:02:26;;;;;;;;;3362.00;3362.00;;;;;;;;6321060;22;11536;-83
2021/09/26 01:04:52;;;;;;;;;3361.60;3361.60;;;;;;;;6320961;22;8741;-83
2021/09/26 01:13:27;;;;;;;;;3354.20;3354.20;;;;;;;;6319960;22;8732;-82
2021/09/26 01:16:04;;;;;;;;;3372.75;3372.75;;;;;;;;6321199;22;9660;-83
2021/09/26 01:18:55;;;;;;;;;3372.60;3372.60;;;;;;;;6318422;22;8745;-81
2021/09/26 01:21:39;;;;;;;;;3374.60;3374.60;;;;;;;;6283102;22;8720;-82
2021/09/26 01:24:23;;;;;;;;;3372.60;3372.60;;;;;;;;6321133;22;8677;-81
2021/09/26 01:27:14;;;;;;;;;3374.50;3374.50;;;;;;;;6318353;22;8740;-82
2021/09/26 01:29:39;;;;;;;;;3370.00;3370.00;;;;;;;;6322271;22;8724;-83
2021/09/26 01:32:06;;;;;;;;;3381.50;3381.50;;;;;;;;6320108;22;8763;-82
2021/09/26 01:34:38;;;;;;;;;3356.00;3356.00;;;;;;;;6321918;22;8744;-82
2021/09/26 01:37:12;;;;;;;;;3375.25;3375.25;;;;;;;;6322161;22;8721;-82
2021/09/26 01:39:42;;;;;;;;;3362.40;3362.40;;;;;;;;6322188;22;8709;-82
2021/09/26 01:42:29;;;;;;;;;;;;;;;;;;;;;
2021/09/26 01:45:01;;;;;;;;;3330.20;3330.20;;;;;;;;6321241;22;36511;-81
2021/09/26 01:47:36;;;;;;;;;3379.75;3379.75;;;;;;;;6322501;22;8799;-82
2021/09/26 01:50:05;;;;;;;;;3352.00;3352.00;;;;;;;;6294237;22;8756;-82
2021/09/26 01:52:34;;;;;;;;;3370.00;3370.00;;;;;;;;6294278;22;8740;-82
2021/09/26 01:55:01;;;;;;;;;3374.50;3374.50;;;;;;;;6322115;22;8752;-82
2021/09/26 01:57:27;;;;;;;;;3365.20;3365.20;;;;;;;;6294007;22;8763;-81
2021/09/26 02:00:06;;;;;;;;;3361.25;3361.25;;;;;;;;6322532;22;8772;-83
2021/09/26 02:03:11;;;;;;;;;;;;;;;;;;;;;
2021/09/26 02:05:45;;;;;;;;;3381.40;3381.40;;;;;;;;6313473;22;36170;-82
2021/09/26 02:08:15;;;;;;;;;3360.40;3360.40;;;;;;;;6322280;22;8736;-83
2021/09/26 02:10:44;;;;;;;;;3384.00;3384.00;;;;;;;;6293234;22;8764;-82
2021/09/26 02:13:11;;;;;;;;;3370.00;3370.00;;;;;;;;6321626;22;8724;-79
2021/09/26 02:15:37;;;;;;;;;3372.80;3372.80;;;;;;;;6321958;22;8770;-79
2021/09/26 02:18:04;;;;;;;;;3372.80;3372.80;;;;;;;;6132976;22;4358389;-80
2021/09/26 02:20:30;;;;;;;;;3365.20;3365.20;;;;;;;;6322117;22;9584;-80
2021/09/26 02:22:57;;;;;;;;;3368.25;3368.25;;;;;;;;6322365;22;8721;-79
2021/09/26 02:25:23;;;;;;;;;3359.60;3359.60;;;;;;;;6321634;22;8748;-79
2021/09/26 02:27:49;;;;;;;;;3368.00;3368.00;;;;;;;;6321915;22;8825;-79
2021/09/26 02:30:15;;;;;;;;;3375.25;3375.25;;;;;;;;6322134;22;10475;-79
2021/09/26 02:32:41;;;;;;;;;3379.75;3379.75;;;;;;;;6256507;22;1507409;-79
2021/09/26 02:35:07;;;;;;;;;3374.50;3374.50;;;;;;;;6321879;22;8810;-80
2021/09/26 02:37:33;;;;;;;;;3365.75;3365.75;;;;;;;;6322213;22;8744;-80
2021/09/26 02:39:59;;;;;;;;;3379.75;3379.75;;;;;;;;6321756;22;8855;-79
2021/09/26 02:42:27;;;;;;;;;3376.25;3376.25;;;;;;;;6322284;22;8715;-80
2021/09/26 02:45:05;;;;;;;;;3390.50;3390.50;;;;;;;;6321890;22;8724;-79
2021/09/26 02:47:34;;;;;;;;;3370.40;3370.40;;;;;;;;6321773;22;8749;-80
2021/09/26 02:49:59;;;;;;;;;3382.40;3382.40;;;;;;;;6321684;22;8721;-80
2021/09/26 02:52:25;;;;;;;;;3381.50;3381.50;;;;;;;;6322069;22;8748;-80
2021/09/26 02:54:51;;;;;;;;;3379.67;3379.67;;;;;;;;6321698;22;8784;-80
2021/09/26 02:57:16;;;;;;;;;3383.00;3383.00;;;;;;;;6321708;22;11516;-80
2021/09/26 02:59:43;;;;;;;;;3371.00;3371.00;;;;;;;;6131873;22;4358094;-79
2021/09/26 03:02:08;;;;;;;;;3369.80;3369.80;;;;;;;;6322059;22;9178;-80
2021/09/26 03:04:43;;;;;;;;;3383.00;3383.00;;;;;;;;6293789;22;8774;-80
2021/09/26 03:07:09;;;;;;;;;3365.75;3365.75;;;;;;;;6322177;22;11636;-80
2021/09/26 03:09:34;;;;;;;;;3382.00;3382.00;;;;;;;;6322052;22;8736;-80
2021/09/26 03:11:59;;;;;;;;;3355.00;3355.00;;;;;;;;6321693;22;8771;-80
2021/09/26 03:14:25;;;;;;;;;3372.50;3372.50;;;;;;;;6321759;22;8799;-80
2021/09/26 03:16:50;;;;;;;;;3379.50;3379.50;;;;;;;;6321951;22;8747;-80
2021/09/26 03:19:16;;;;;;;;;3361.25;3361.25;;;;;;;;6322130;22;8772;-80
2021/09/26 03:21:41;;;;;;;;;3365.75;3365.75;;;;;;;;6321633;22;8728;-80
2021/09/26 03:24:06;;;;;;;;;3393.50;3393.50;;;;;;;;6322031;22;8817;-79
2021/09/26 03:26:32;;;;;;;;;3383.00;3383.00;;;;;;;;6321476;22;8779;-80
2021/09/26 03:28:57;;;;;;;;;3401.00;3401.00;;;;;;;;6321569;22;11738;-80
2021/09/26 03:31:24;;;;;;;;;3372.75;3372.75;;;;;;;;6293419;22;8766;-80
2021/09/26 03:33:49;;;;;;;;;3382.40;3382.40;;;;;;;;6321515;22;8776;-80
2021/09/26 03:36:14;;;;;;;;;3375.00;3375.00;;;;;;;;6321894;22;8764;-80
2021/09/26 03:38:40;;;;;;;;;3372.50;3372.50;;;;;;;;6321695;22;8863;-80
2021/09/26 03:41:05;;;;;;;;;3383.00;3383.00;;;;;;;;6321422;22;8733;-80
2021/09/26 03:43:30;;;;;;;;;3376.25;3376.25;;;;;;;;6321631;22;8866;-80
2021/09/26 03:45:56;;;;;;;;;3365.75;3365.75;;;;;;;;6104136;22;4358356;-80
2021/09/26 03:48:22;;;;;;;;;3386.50;3386.50;;;;;;;;6321703;22;8771;-80
2021/09/26 03:50:48;;;;;;;;;3368.20;3368.20;;;;;;;;6293138;22;8725;-80
2021/09/26 03:53:14;;;;;;;;;3364.40;3364.40;;;;;;;;6321947;22;8737;-80
2021/09/26 03:55:40;;;;;;;;;3364.40;3364.40;;;;;;;;6320962;22;8788;-80
2021/09/26 03:58:06;;;;;;;;;3365.75;3365.75;;;;;;;;6322008;22;8772;-80
2021/09/26 04:00:32;;;;;;;;;3363.00;3363.00;;;;;;;;6321968;22;8791;-80
2021/09/26 04:02:57;;;;;;;;;3365.75;3365.75;;;;;;;;6321924;22;8763;-80
2021/09/26 04:05:22;;;;;;;;;3327.75;3327.75;;;;;;;;6293508;22;8795;-80
2021/09/26 04:07:48;;;;;;;;;3371.00;3371.00;;;;;;;;6321937;22;8733;-80
2021/09/26 04:10:13;;;;;;;;;3361.25;3361.25;;;;;;;;6321117;22;8788;-80
2021/09/26 04:12:40;;;;;;;;;3372.75;3372.75;;;;;;;;6321718;22;8748;-80
2021/09/26 04:15:06;;;;;;;;;3366.20;3366.20;;;;;;;;6321463;22;8756;-80
2021/09/26 04:17:31;;;;;;;;;3366.20;3366.20;;;;;;;;6321701;22;11457;-80
2021/09/26 04:19:56;;;;;;;;;3359.33;3359.33;;;;;;;;6293571;22;8854;-80
2021/09/26 04:22:22;;;;;;;;;3359.33;3359.33;;;;;;;;6321669;22;8867;-80
2021/09/26 04:24:47;;;;;;;;;3370.33;3370.33;;;;;;;;6321328;22;10453;-79
2021/09/26 04:27:12;;;;;;;;;3376.00;3376.00;;;;;;;;6321420;22;8775;-79
2021/09/26 04:29:38;;;;;;;;;3370.33;3370.33;;;;;;;;6321308;22;12324;-79
2021/09/26 04:32:03;;;;;;;;;3369.50;3369.50;;;;;;;;6321324;22;8749;-79
2021/09/26 04:34:29;;;;;;;;;3369.25;3369.25;;;;;;;;6321408;22;8772;-79
2021/09/26 04:36:55;;;;;;;;;3369.50;3369.50;;;;;;;;6321542;22;9620;-79
2021/09/26 04:39:20;;;;;;;;;3367.50;3367.50;;;;;;;;6321573;22;11470;-79
2021/09/26 04:41:45;;;;;;;;;3376.00;3376.00;;;;;;;;6321464;22;8736;-79
2021/09/26 04:44:11;;;;;;;;;3356.00;3356.00;;;;;;;;6321543;22;8764;-79
2021/09/26 04:46:36;;;;;;;;;3379.50;3379.50;;;;;;;;6321264;22;8794;-79
2021/09/26 04:49:02;;;;;;;;;3364.00;3364.00;;;;;;;;6321648;22;8756;-79
2021/09/26 04:51:27;;;;;;;;;3361.25;3361.25;;;;;;;;6321655;22;8787;-79
2021/09/26 04:53:52;;;;;;;;;3367.50;3367.50;;;;;;;;6321421;22;8788;-79
2021/09/26 04:56:18;;;;;;;;;3371.00;3371.00;;;;;;;;6321276;22;8741;-79
2021/09/26 04:58:43;;;;;;;;;3361.25;3361.25;;;;;;;;6321371;22;8814;-79
2021/09/26 05:01:09;;;;;;;;;3383.00;3383.00;;;;;;;;6293182;22;8759;-79
2021/09/26 05:03:34;;;;;;;;;3377.33;3377.33;;;;;;;;6322402;22;11499;-80
2021/09/26 05:05:59;;;;;;;;;3379.50;3379.50;;;;;;;;6322636;22;8822;-79
2021/09/26 05:08:25;;;;;;;;;3365.75;3365.75;;;;;;;;6294209;22;8764;-79
2021/09/26 05:10:50;;;;;;;;;3351.50;3351.50;;;;;;;;6321646;22;8752;-79
2021/09/26 05:13:15;;;;;;;;;3341.00;3341.00;;;;;;;;6322500;22;8792;-80
2021/09/26 05:15:41;;;;;;;;;3377.33;3377.33;;;;;;;;6294212;22;8826;-79
2021/09/26 05:18:06;;;;;;;;;3365.75;3365.75;;;;;;;;6322660;22;8881;-79
2021/09/26 05:20:32;;;;;;;;;3371.00;3371.00;;;;;;;;5942025;22;4357477;-80
2021/09/26 05:22:58;;;;;;;;;3365.75;3365.75;;;;;;;;6294597;22;9051;-79
2021/09/26 05:25:24;;;;;;;;;3372.75;3372.75;;;;;;;;6322464;22;8782;-79
2021/09/26 05:27:49;;;;;;;;;3368.80;3368.80;;;;;;;;6322686;22;9449;-79
2021/09/26 05:30:15;;;;;;;;;3364.25;3364.25;;;;;;;;6322698;22;8745;-79
2021/09/26 05:32:40;;;;;;;;;3386.33;3386.33;;;;;;;;6325394;22;9465;-79
2021/09/26 05:35:06;;;;;;;;;3378.20;3378.20;;;;;;;;6322314;22;11526;-80
2021/09/26 05:37:31;;;;;;;;;3365.40;3365.40;;;;;;;;6322569;22;9413;-79
2021/09/26 05:39:57;;;;;;;;;3384.00;3384.00;;;;;;;;6322113;22;8876;-79
2021/09/26 05:42:22;;;;;;;;;3379.50;3379.50;;;;;;;;6293705;22;8748;-80
2021/09/26 05:44:48;;;;;;;;;3366.00;3366.00;;;;;;;;6322242;22;8757;-80
2021/09/26 05:47:14;;;;;;;;;3364.25;3364.25;;;;;;;;6322452;22;8848;-80
2021/09/26 05:49:40;;;;;;;;;3369.25;3369.25;;;;;;;;6322338;22;8715;-80
2021/09/26 05:52:07;;;;;;;;;3367.50;3367.50;;;;;;;;6322742;22;8756;-79
2021/09/26 05:54:32;;;;;;;;;3374.75;3374.75;;;;;;;;6322128;22;8850;-79
2021/09/26 05:56:58;;;;;;;;;3363.00;3363.00;;;;;;;;6322223;22;8736;-79
2021/09/26 05:59:23;;;;;;;;;3359.67;3359.67;;;;;;;;6322537;22;8772;-80
2021/09/26 06:01:49;;;;;;;;;3367.50;3367.50;;;;;;;;6294601;22;8808;-80
2021/09/26 06:04:14;;;;;;;;;3357.80;3357.80;;;;;;;;6322247;22;8749;-80
2021/09/26 06:06:39;;;;;;;;;3363.00;3363.00;;;;;;;;6294473;22;8891;-79
2021/09/26 06:09:04;;;;;;;;;3354.50;3354.50;;;;;;;;6322129;22;8756;-79
2021/09/26 06:11:30;;;;;;;;;3350.33;3350.33;;;;;;;;6321798;22;8780;-79
2021/09/26 06:13:55;;;;;;;;;3368.00;3368.00;;;;;;;;6293329;22;8771;-80
2021/09/26 06:16:21;;;;;;;;;3763.25;3763.25;;;;;;;;6294078;22;8760;-80
2021/09/26 06:18:46;;;;;;;;;3352.67;3352.67;;;;;;;;6322165;22;8799;-79
2021/09/26 06:21:11;;;;;;;;;3361.25;3361.25;;;;;;;;6294000;22;8780;-79
2021/09/26 06:23:37;;;;;;;;;3369.50;3369.50;;;;;;;;6322078;22;8736;-79
2021/09/26 06:26:02;;;;;;;;;3347.50;3347.50;;;;;;;;6322253;22;8788;-79
2021/09/26 06:28:27;;;;;;;;;3375.00;3375.00;;;;;;;;6322072;22;8867;-79
2021/09/26 06:30:53;;;;;;;;;3346.33;3346.33;;;;;;;;6322547;22;8760;-79
2021/09/26 06:33:18;;;;;;;;;3346.33;3346.33;;;;;;;;6321336;22;11595;-79
2021/09/26 06:35:44;;;;;;;;;3371.80;3371.80;;;;;;;;6322182;22;8776;-79
2021/09/26 06:38:09;;;;;;;;;3349.50;3349.50;;;;;;;;6322193;22;8768;-79
2021/09/26 06:40:35;;;;;;;;;3356.00;3356.00;;;;;;;;6321914;22;8914;-79
2021/09/26 06:43:00;;;;;;;;;3685.25;3685.25;;;;;;;;6321862;22;8748;-80
2021/09/26 06:45:26;;;;;;;;;3402.80;3402.80;;;;;;;;3262926;22;19960619;-79
2021/09/26 06:47:51;;;;;;;;;3374.20;3374.20;;;;;;;;3131420;22;8708797;-80
2021/09/26 06:50:16;;;;;;;;;3369.80;3369.80;;;;;;;;5817683;22;4357107;-80
2021/09/26 06:52:42;;;;;;;;;3373.80;3373.80;;;;;;;;6322051;22;8756;-80
2021/09/26 06:55:07;;;;;;;;;3349.00;3349.00;;;;;;;;6293308;22;8824;-80
2021/09/26 06:57:33;;;;;;;;;3362.00;3362.00;;;;;;;;6322067;22;8765;-80
2021/09/26 06:59:58;;;;;;;;;3376.50;3376.50;;;;;;;;6293994;22;8905;-80
2021/09/26 07:02:24;;;;;;;;;3311.75;3311.75;;;;;;;;6322388;22;8771;-80
2021/09/26 07:04:50;;;;;;;;;3354.50;3354.50;;;;;;;;6322223;22;8760;-81
2021/09/26 07:07:16;;;;;;;;;3347.50;3347.50;;;;;;;;6321816;22;8752;-80
2021/09/26 07:09:42;;;;;;;;;3339.50;3339.50;;;;;;;;6321688;22;8771;-80
2021/09/26 07:12:09;;;;;;;;;3311.60;3311.60;;;;;;;;6293856;22;11571;-81
2021/09/26 07:14:34;;;;;;;;;3338.20;3338.20;;;;;;;;6321918;22;8802;-80
2021/09/26 07:16:59;;;;;;;;;3346.33;3346.33;;;;;;;;6321888;22;8744;-81
2021/09/26 07:19:25;;;;;;;;;3354.20;3354.20;;;;;;;;6104433;22;4357373;-80
2021/09/26 07:21:50;;;;;;;;;3373.50;3373.50;;;;;;;;6322056;22;8760;-80
2021/09/26 07:24:15;;;;;;;;;3350.67;3350.67;;;;;;;;6293727;22;8784;-80
2021/09/26 07:26:41;;;;;;;;;3313.25;3313.25;;;;;;;;6320846;22;8834;-80
2021/09/26 07:29:06;;;;;;;;;3324.00;3324.00;;;;;;;;6321854;22;8796;-80
2021/09/26 07:31:32;;;;;;;;;3344.00;3344.00;;;;;;;;6321936;22;8744;-80
2021/09/26 07:33:57;;;;;;;;;3311.25;3311.25;;;;;;;;6321035;22;9527;-80
2021/09/26 07:36:23;;;;;;;;;3297.00;3297.00;;;;;;;;6322173;22;8791;-80
2021/09/26 07:38:48;;;;;;;;;3332.75;3332.75;;;;;;;;6322197;22;8790;-79
2021/09/26 07:41:13;;;;;;;;;3349.50;3349.50;;;;;;;;6321458;22;8744;-79
2021/09/26 07:43:39;;;;;;;;;3330.33;3330.33;;;;;;;;6321686;22;8798;-80
2021/09/26 07:46:04;;;;;;;;;3580.50;3580.50;;;;;;;;6321855;22;8760;-79
2021/09/26 07:48:29;;;;;;;;;3336.00;3336.00;;;;;;;;6321971;22;8768;-80
2021/09/26 07:50:55;;;;;;;;;3333.00;3333.00;;;;;;;;6321949;22;8807;-80
2021/09/26 07:53:20;;;;;;;;;3324.00;3324.00;;;;;;;;6321626;22;8807;-80
2021/09/26 07:55:48;;;;;;;;;3342.50;3342.50;;;;;;;;6293037;22;8804;-80
2021/09/26 07:58:14;;;;;;;;;3337.00;3337.00;;;;;;;;6131488;22;4357482;-79
2021/09/26 08:00:39;;;;;;;;;3342.00;3342.00;;;;;;;;6321817;22;8850;-80
2021/09/26 08:03:04;;;;;;;;;3337.00;3337.00;;;;;;;;6131734;22;4357026;-80
2021/09/26 08:05:30;;;;;;;;;3319.50;3319.50;;;;;;;;6293342;22;8788;-80
2021/09/26 08:07:55;;;;;;;;;3342.50;3342.50;;;;;;;;6321985;22;8800;-80
2021/09/26 08:10:20;;;;;;;;;3333.00;3333.00;;;;;;;;6321431;22;8880;-80
2021/09/26 08:12:46;;;;;;;;;3359.50;3359.50;;;;;;;;6132302;22;4357317;-80
2021/09/26 08:15:11;;;;;;;;;3324.00;3324.00;;;;;;;;6321227;22;8791;-80
2021/09/26 08:17:37;;;;;;;;;3290.25;3290.25;;;;;;;;6293426;22;8810;-80
2021/09/26 08:20:02;;;;;;;;;3317.00;3317.00;;;;;;;;6321129;22;8748;-80
2021/09/26 08:22:28;;;;;;;;;3736.50;3736.50;;;;;;;;5915113;22;4358774;-80
2021/09/26 08:24:53;;;;;;;;;3336.00;3336.00;;;;;;;;6320949;22;8752;-80
2021/09/26 08:27:19;;;;;;;;;3336.00;3336.00;;;;;;;;6292683;22;8753;-80
2021/09/26 08:29:45;;;;;;;;;3326.00;3326.00;;;;;;;;6321169;22;8764;-81
2021/09/26 08:32:10;;;;;;;;;3319.50;3319.50;;;;;;;;6131176;22;4357215;-81
2021/09/26 08:34:36;;;;;;;;;3334.20;3334.20;;;;;;;;6314857;22;9087;-81
2021/09/26 08:37:01;;;;;;;;;3333.00;3333.00;;;;;;;;6129550;22;4357760;-81
2021/09/26 08:39:27;;;;;;;;;3333.00;3333.00;;;;;;;;6127323;22;4358430;-81
2021/09/26 08:41:53;;;;;;;;;3330.33;3330.33;;;;;;;;6129538;22;4359100;-81
2021/09/26 08:44:23;;;;;;;;;3310.00;3310.00;;;;;;;;6129041;22;4358187;-81
2021/09/26 08:46:50;;;;;;;;;3314.25;3314.25;;;;;;;;6318967;22;9700;-81
2021/09/26 08:49:16;;;;;;;;;3319.50;3319.50;;;;;;;;6319287;22;8745;-81
2021/09/26 08:51:43;;;;;;;;;3873.00;3873.00;;;;;;;;6127173;22;4358741;-81
2021/09/26 08:54:09;;;;;;;;;3319.00;3319.00;;;;;;;;6129717;22;4358190;-83
2021/09/26 08:56:34;;;;;;;;;3643.00;3643.00;;;;;;;;6316316;22;8796;-81
2021/09/26 08:58:59;;;;;;;;;3643.00;3643.00;;;;;;;;5938564;22;4358202;-81
2021/09/26 09:01:26;;;;;;;;;3624.50;3624.50;;;;;;;;6318761;22;11538;-82
2021/09/26 09:03:52;;;;;;;;;3632.25;3632.25;;;;;;;;6129709;22;4358687;-81
2021/09/26 09:06:17;;;;;;;;;3616.25;3616.25;;;;;;;;6290876;22;8756;-82
2021/09/26 09:08:44;;;;;;;;;3616.00;3616.00;;;;;;;;6316514;22;8791;-82
2021/09/26 09:11:10;;;;;;;;;3628.25;3628.25;;;;;;;;6128498;22;4358000;-82
2021/09/26 09:13:38;;;;;;;;;3628.25;3628.25;;;;;;;;6318255;22;8861;-82
2021/09/26 09:16:08;;;;;;;;;3630.50;3630.50;;;;;;;;6318621;22;8814;-82
2021/09/26 09:18:54;;;;;;;;;3609.33;3609.33;;;;;;;;6128447;22;4357172;-84
2021/09/26 09:21:19;;;;;;;;;3619.25;3619.25;;;;;;;;5911983;22;4358255;-84
2021/09/26 09:24:07;;;;;;;;;3540.50;3540.50;;;;;;;;6318651;22;8768;-84
2021/09/26 09:26:37;;;;;;;;;3628.00;3628.00;;;;;;;;5934882;22;4358208;-83
2021/09/26 09:29:05;;;;;;;;;3626.50;3626.50;;;;;;;;6318141;22;8748;-83
2021/09/26 09:31:31;;;;;;;;;3322.50;3322.50;;;;;;;;6100923;22;4357387;-84
2021/09/26 09:33:56;;;;;;;;;3609.33;3609.33;;;;;;;;6263950;22;1273003;-83
2021/09/26 09:36:23;;;;;;;;;3524.50;3524.50;;;;;;;;6320778;22;8764;-84
2021/09/26 09:38:53;;;;;;;;;3567.80;3567.80;;;;;;;;6321232;22;8748;-84
2021/09/26 09:41:51;;;;;;;;;3539.00;3539.00;;;;;;;;6130848;22;4357816;-84
2021/09/26 09:44:16;;;;;;;;;3635.00;3635.00;;;;;;;;6050100;22;4357287;-84
2021/09/26 09:46:46;;;;;;;;;3599.67;3599.67;;;;;;;;6321022;22;9421;-83
2021/09/26 09:49:11;;;;;;;;;3644.50;3644.50;;;;;;;;6132085;22;4358343;-83
2021/09/26 09:51:38;;;;;;;;;3528.50;3528.50;;;;;;;;6322415;22;8791;-83
2021/09/26 09:54:04;;;;;;;;;3599.67;3599.67;;;;;;;;6132281;22;4357522;-83
2021/09/26 09:56:38;;;;;;;;;3523.50;3523.50;;;;;;;;5942019;22;4358249;-83
2021/09/26 09:59:03;;;;;;;;;3640.80;3640.80;;;;;;;;6322369;22;8728;-84
2021/09/26 10:01:30;;;;;;;;;3520.00;3520.00;;;;;;;;6132394;22;4358329;-83
2021/09/26 10:03:57;;;;;;;;;3319.00;3319.00;;;;;;;;6133002;22;4358548;-83
2021/09/26 10:06:30;;;;;;;;;3627.00;3627.00;;;;;;;;6132208;22;4357652;-84
2021/09/26 10:09:16;;;;;;;;;3528.00;3528.00;;;;;;;;6105893;22;4357956;-83
2021/09/26 10:11:45;;;;;;;;;3601.67;3601.67;;;;;;;;6131943;22;4357938;-85
2021/09/26 10:14:11;;;;;;;;;3300.00;3300.00;;;;;;;;5942916;22;4358550;-84
2021/09/26 10:16:36;;;;;;;;;104.75;99.75;;;;;;;;6132414;22;4357540;-84
2021/09/26 10:19:02;;;;;;;;;826.25;816.75;;;;;;;;5929685;22;8409637;-84
2021/09/26 10:21:29;;;;;;;;;713.50;704.50;;;;;;;;6131836;22;4357775;-84
2021/09/26 10:23:56;;;;;;;;;2504.00;2500.00;;;;;;;;5942195;22;4357460;-83
2021/09/26 10:26:25;;;;;;;;;3564.75;3564.75;;;;;;;;5941797;22;4357671;-84
2021/09/26 10:28:51;;;;;;;;;3655.50;3655.50;;;;;;;;5727378;22;4358149;-83
2021/09/26 10:31:17;;;;;;;;;2562.75;2558.00;;;;;;;;5942485;22;4357508;-84
2021/09/26 10:33:44;;;;;;;;;3683.00;3683.00;;;;;;;;5751526;22;4357712;-84
2021/09/26 10:36:33;;;;;;;;;3651.50;3651.50;;;;;;;;5496111;22;4357684;-84
2021/09/26 10:38:59;;;;;;;;;3568.33;3568.33;;;;;;;;4182242;22;9759661;-82
2021/09/26 10:41:25;;;;;;;;;3651.00;3651.00;;;;;;;;5561880;22;4358350;-86
2021/09/26 10:43:51;;;;;;;;;3643.25;3643.25;;;;;;;;5751400;22;4358125;-84
2021/09/26 10:46:19;;;;;;;;;3287.00;3287.00;;;;;;;;6104793;22;4358081;-83
2021/09/26 10:49:03;;;;;;;;;3659.50;3659.50;;;;;;;;6105200;22;4359068;-82
2021/09/26 10:51:41;;;;;;;;;3683.50;3683.50;;;;;;;;5915574;22;4357324;-82
2021/09/26 10:54:22;;;;;;;;;3490.00;3490.00;;;;;;;;6132243;22;4357120;-81
2021/09/26 10:56:47;;;;;;;;;3602.00;3602.00;;;;;;;;4558708;22;9310450;-81
2021/09/26 10:59:13;;;;;;;;;3482.50;3482.50;;;;;;;;5999797;22;4357146;-82
2021/09/26 11:01:39;;;;;;;;;3635.25;3635.25;;;;;;;;6131825;22;4357920;-82
2021/09/26 11:04:04;;;;;;;;;3675.50;3675.50;;;;;;;;5751873;22;4358721;-82
2021/09/26 11:06:30;;;;;;;;;3685.40;3685.40;;;;;;;;6132077;22;4357109;-82
2021/09/26 11:08:59;;;;;;;;;3624.00;3624.00;;;;;;;;5751853;22;4357471;-82
2021/09/26 11:11:36;;;;;;;;;3333.00;3333.00;;;;;;;;5576074;22;8409274;-81
2021/09/26 11:14:02;;;;;;;;;3624.00;3624.00;;;;;;;;5941787;22;4357982;-81
2021/09/26 11:16:47;;;;;;;;;3689.50;3689.50;;;;;;;;5751821;22;4358618;-82
2021/09/26 11:19:13;;;;;;;;;3693.50;3693.50;;;;;;;;5751843;22;4358140;-82
2021/09/26 11:21:38;;;;;;;;;3604.50;3604.50;;;;;;;;5181883;22;8708636;-81
2021/09/26 11:24:04;;;;;;;;;3633.25;3633.25;;;;;;;;5561499;22;4357749;-81
2021/09/26 11:26:48;;;;;;;;;3628.00;3628.00;;;;;;;;5370917;22;4358387;-81
2021/09/26 11:29:13;;;;;;;;;3689.50;3689.50;;;;;;;;5941570;22;4358004;-82
2021/09/26 11:31:40;;;;;;;;;3673.50;3673.50;;;;;;;;5371334;22;4357759;-83
2021/09/26 11:34:05;;;;;;;;;3690.33;3690.33;;;;;;;;5509704;22;8408454;-85
2021/09/26 11:36:31;;;;;;;;;3667.00;3667.00;;;;;;;;5560932;22;4357888;-85
2021/09/26 11:39:16;;;;;;;;;3681.50;3681.50;;;;;;;;5875849;22;4357532;-86
2021/09/26 11:41:41;;;;;;;;;3677.33;3677.33;;;;;;;;5536166;22;4358472;-84
2021/09/26 11:44:08;;;;;;;;;3673.00;3673.00;;;;;;;;5370722;22;4358101;-84
2021/09/26 11:46:33;;;;;;;;;3658.33;3658.33;;;;;;;;5180935;22;4358656;-84
2021/09/26 11:49:04;;;;;;;;;3669.00;3669.00;;;;;;;;4931924;22;4357939;-85
2021/09/26 11:51:29;;;;;;;;;3647.67;3647.67;;;;;;;;5305675;22;4358066;-84
2021/09/26 11:53:55;;;;;;;;;3677.50;3677.50;;;;;;;;4826892;22;8258073;-83
2021/09/26 11:56:31;;;;;;;;;3659.00;3659.00;;;;;;;;5181588;22;13059626;-83
2021/09/26 11:58:58;;;;;;;;;3670.60;3670.60;;;;;;;;4984419;22;7358477;-84
2021/09/26 12:01:37;;;;;;;;;3666.33;3666.33;;;;;;;;5076048;22;7658853;-84
2021/09/26 12:04:05;;;;;;;;;3681.00;3681.00;;;;;;;;4729296;22;8708133;-84
2021/09/26 12:06:30;;;;;;;;;3657.80;3657.80;;;;;;;;4866898;22;8708559;-82
2021/09/26 12:08:56;;;;;;;;;3630.60;3630.60;;;;;;;;5043612;22;8708557;-81
2021/09/26 12:11:21;;;;;;;;;3306.50;3306.50;;;;;;;;4520350;22;7209049;-81
2021/09/26 12:13:53;;;;;;;;;3520.75;3520.75;;;;;;;;4316954;22;9759389;-82
2021/09/26 12:16:20;;;;;;;;;3692.00;3692.00;;;;;;;;4585442;22;5858735;-82
2021/09/26 12:18:56;;;;;;;;;3315.33;3315.33;;;;;;;;3261628;22;12609152;-84
2021/09/26 12:21:24;;;;;;;;;3685.50;3685.50;;;;;;;;4125825;22;7508028;-83
2021/09/26 12:23:53;;;;;;;;;3681.50;3681.50;;;;;;;;3051931;22;10359482;-85
2021/09/26 12:26:20;;;;;;;;;3319.50;3319.50;;;;;;;;3433256;22;11558683;-84
2021/09/26 12:29:00;;;;;;;;;3675.40;3675.40;;;;;;;;3932014;22;7507967;-84
2021/09/26 12:31:27;;;;;;;;;3677.00;3677.00;;;;;;;;3157248;22;10208638;-84
2021/09/26 12:33:54;;;;;;;;;3718.00;3718.00;;;;;;;;1880600;22;14560378;-84
2021/09/26 12:36:20;;;;;;;;;3316.50;3316.50;;;;;;;;1273074;22;28365465;-82
2021/09/26 12:38:46;;;;;;;;;3598.75;3598.75;;;;;;;;1704017;22;15310234;-82
2021/09/26 12:41:21;;;;;;;;;3637.00;3637.00;;;;;;;;1951824;22;19511091;-81
2021/09/26 12:43:51;;;;;;;;;3512.00;3512.00;;;;;;;;4049250;22;10510002;-82
2021/09/26 12:46:20;;;;;;;;;3663.25;3663.25;;;;;;;;2619753;22;17560297;-83
2021/09/26 12:48:46;;;;;;;;;3585.00;3585.00;;;;;;;;2685150;22;9010674;-82
2021/09/26 12:51:37;;;;;;;;;3313.00;3313.00;;;;;;;;1606717;22;15012090;-84
2021/09/26 12:54:04;;;;;;;;;3326.25;3326.25;;;;;;;;1871261;22;13211663;-84
2021/09/26 12:56:32;;;;;;;;;3413.50;3413.50;;;;;;;;1893545;22;15010706;-83
2021/09/26 12:59:14;;;;;;;;;3674.67;3674.67;;;;;;;;878138;22;13359922;-82
2021/09/26 13:01:40;;;;;;;;;3695.75;3695.75;;;;;;;;786525;22;16210683;-82
2021/09/26 13:04:13;;;;;;;;;3333.00;3333.00;;;;;;;;886557;22;17410960;-83
2021/09/26 13:06:50;;;;;;;;;3614.60;3614.60;;;;;;;;1245407;22;16210635;-83
2021/09/26 13:09:15;;;;;;;;;3655.00;3655.00;;;;;;;;1290490;22;12460495;-83
2021/09/26 13:11:42;;;;;;;;;3317.00;3317.00;;;;;;;;697247;22;24013341;-83
2021/09/26 13:14:11;;;;;;;;;3323.00;3323.00;;;;;;;;533367;22;22511961;-83
2021/09/26 13:16:45;;;;;;;;;3333.00;3333.00;;;;;;;;876800;22;22363513;-83
2021/09/26 13:19:31;;;;;;;;;3333.00;3333.00;;;;;;;;138222;22;31216027;-83
2021/09/26 13:22:03;;;;;;;;;3306.00;3306.00;;;;;;;;337770;22;22512723;-83
2021/09/26 13:24:31;;;;;;;;;;;;;;;;;;9;10509260;28514699;-83
2021/09/26 13:27:11;;;;;;;;;3449.50;3449.50;;;;;;;;2324555;22;12460160;-82
2021/09/26 13:29:44;;;;;;;;;;;;;;;;;;4;34367024;61522962;-80
2021/09/26 13:33:23;;;;;;;;;3433.00;3433.00;;;;;;;;2796796;22;12160680;-81
2021/09/26 14:29:38;;;;;;;;;73.50;66.00;;;;;;;;2;234200472;234200472;-82
2021/09/26 15:06:42;;;;;;;;;;;;;;;;;;2;234072082;234072082;-79
2021/09/26 15:44:55;;;;;;;;;;;;;;;;;;;;;
2021/09/26 15:53:56;;;;;;;;;2524.00;2521.50;;;;;;;;2;279108993;279108993;-80
2021/09/26 16:02:45;;;;;;;;;2523.00;2520.50;;;;;;;;2;234070562;234070562;-80
2021/09/26 16:11:46;;;;;;;;;66.50;54.00;;;;;;;;2;279082388;279082388;-81
2021/09/26 16:20:30;;;;;;;;;2521.00;2518.50;;;;;;;;2;234068160;234068160;-80
2021/09/26 16:29:56;;;;;;;;;3333.00;3333.00;;;;;;;;2;279080447;279080447;-82
2021/09/26 16:38:38;;;;;;;;;3333.00;3333.00;;;;;;;;2;234069095;234069095;-81
2021/09/26 16:47:39;;;;;;;;;3333.00;3333.00;;;;;;;;2;279080877;279080877;-81
2021/09/26 16:56:21;;;;;;;;;2525.50;2523.00;;;;;;;;2;234068899;234068899;-81
2021/09/26 17:05:23;;;;;;;;;2523.00;2520.50;;;;;;;;2;279081779;279081779;-81
2021/09/26 17:14:08;;;;;;;;;73.00;64.00;;;;;;;;2;234068582;234068582;-80
2021/09/26 17:23:10;;;;;;;;;74.50;66.50;;;;;;;;2;279078470;279078470;-82
2021/09/26 17:31:53;;;;;;;;;76.00;69.00;;;;;;;;2;234069767;234069767;-81